createdAt,value
2022-11-26T00:00:01.324Z,0.00
2022-11-26T00:10:04.128Z,0.00
2022-11-26T00:20:03.338Z,0.00
2022-11-26T00:30:01.982Z,0.00
2022-11-26T00:40:02.031Z,0.00
2022-11-26T00:50:01.617Z,0.00
2022-11-26T01:00:01.013Z,0.00
2022-11-26T01:10:00.161Z,0.00
2022-11-26T01:20:01.255Z,0.00
2022-11-26T01:30:03.094Z,0.11
2022-11-26T01:40:00.142Z,0.00
2022-11-26T01:50:00.171Z,0.00
2022-11-26T02:00:01.939Z,0.00
2022-11-26T02:20:01.345Z,0.00
2022-11-26T02:30:00.958Z,0.00
2022-11-26T02:40:01.025Z,0.00
2022-11-26T02:50:01.065Z,0.00
2022-11-26T03:00:00.136Z,0.00
2022-11-26T03:10:01.916Z,0.00
2022-11-26T03:20:00.129Z,0.00
2022-11-26T03:30:01.119Z,0.00
2022-11-26T03:40:01.336Z,0.00
2022-11-26T03:50:01.025Z,0.00
2022-11-26T04:00:00.128Z,0.00
2022-11-26T04:10:00.170Z,0.00
2022-11-26T04:20:01.496Z,0.00
2022-11-26T04:30:01.052Z,0.00
2022-11-26T04:40:02.171Z,0.00
2022-11-26T04:50:01.367Z,0.00
2022-11-26T05:00:01.498Z,0.00
2022-11-26T05:10:01.003Z,0.00
2022-11-26T05:20:01.339Z,0.00
2022-11-26T05:30:00.165Z,0.00
2022-11-26T05:40:01.221Z,0.00
2022-11-26T05:50:01.076Z,0.00
2022-11-26T06:00:01.272Z,0.00
2022-11-26T06:10:00.134Z,0.00
2022-11-26T06:20:00.997Z,0.91
2022-11-26T06:30:01.063Z,3.96
2022-11-26T06:40:00.172Z,13.47
2022-11-26T06:50:04.111Z,18.33
2022-11-26T07:00:00.111Z,43.33
2022-11-26T07:10:01.592Z,41.67
2022-11-26T07:20:01.494Z,43.33
2022-11-26T07:30:01.289Z,170.83
2022-11-26T07:40:01.033Z,328.33
2022-11-26T07:50:00.997Z,313.33
2022-11-26T08:00:02.041Z,810.83
2022-11-26T08:10:01.101Z,336.67
2022-11-26T08:20:00.090Z,360.00
2022-11-26T08:30:01.059Z,646.67
2022-11-26T08:40:01.431Z,1498.75
2022-11-26T08:50:01.414Z,1341.67
2022-11-26T09:00:01.569Z,970.42
2022-11-26T09:10:00.171Z,1013.75
2022-11-26T09:20:01.283Z,1294.17
2022-11-26T09:30:00.171Z,1087.92
2022-11-26T09:40:00.129Z,1612.92
2022-11-26T09:50:01.614Z,445.00
2022-11-26T10:00:01.233Z,1175.83
2022-11-26T10:10:01.498Z,1013.33
2022-11-26T10:20:01.919Z,1135.83
2022-11-26T10:30:00.165Z,628.33
2022-11-26T10:40:05.903Z,583.33
2022-11-26T10:50:10.423Z,601.67
2022-11-26T11:00:01.225Z,1402.50
2022-11-26T11:10:01.948Z,491.67
2022-11-26T11:20:00.122Z,626.67
2022-11-26T11:30:01.039Z,816.67
2022-11-26T11:40:00.123Z,1290.83
2022-11-26T11:50:01.084Z,661.67
2022-11-26T12:00:00.127Z,916.67
2022-11-26T12:10:01.519Z,1720.00
2022-11-26T12:20:01.210Z,1772.50
2022-11-26T12:30:01.798Z,1025.42
2022-11-26T12:40:01.245Z,305.00
2022-11-26T12:50:01.253Z,969.17
2022-11-26T13:00:02.027Z,548.33
2022-11-26T13:10:01.526Z,1029.58
2022-11-26T13:20:01.038Z,463.33
2022-11-26T13:30:01.158Z,1026.67
2022-11-26T13:40:01.444Z,960.00
2022-11-26T13:50:01.004Z,800.00
2022-11-26T14:00:01.465Z,485.83
2022-11-26T14:10:01.270Z,143.33
2022-11-26T14:20:01.292Z,116.67
2022-11-26T14:30:02.052Z,229.58
2022-11-26T14:40:01.270Z,95.00
2022-11-26T14:50:01.119Z,67.08
2022-11-26T15:00:03.347Z,15.00
2022-11-26T15:10:00.186Z,17.92
2022-11-26T15:20:01.679Z,3.96
2022-11-26T15:30:01.333Z,1.25
2022-11-26T15:40:01.980Z,0.23
2022-11-26T15:50:00.165Z,0.00
2022-11-26T16:00:01.713Z,0.00
2022-11-26T16:10:01.011Z,0.00
2022-11-26T16:20:00.990Z,0.00
2022-11-26T16:40:01.004Z,0.00
2022-11-26T16:50:00.167Z,0.00
2022-11-26T17:00:01.592Z,0.00
2022-11-26T17:10:02.145Z,0.00
2022-11-26T17:20:01.085Z,0.00
2022-11-26T17:30:01.284Z,0.00
2022-11-26T17:40:00.123Z,0.00
2022-11-26T17:50:01.138Z,0.00
2022-11-26T18:00:01.534Z,0.00
2022-11-26T18:10:01.933Z,0.00
2022-11-26T18:20:01.523Z,0.00
2022-11-26T18:30:01.874Z,0.00
2022-11-26T18:40:01.432Z,0.00
2022-11-26T18:50:02.283Z,0.00
2022-11-26T19:00:01.016Z,0.00
2022-11-26T19:10:01.484Z,0.00
2022-11-26T19:20:00.163Z,0.00
2022-11-26T19:30:01.996Z,0.00
2022-11-26T19:40:01.457Z,0.00
2022-11-26T19:50:01.061Z,0.00
2022-11-26T20:00:01.067Z,0.00
2022-11-26T20:20:01.033Z,0.00
2022-11-26T20:30:00.154Z,0.00
2022-11-26T20:40:03.114Z,0.00
2022-11-26T21:00:01.544Z,0.00
2022-11-26T21:10:01.228Z,0.00
2022-11-26T21:20:00.134Z,0.00
2022-11-26T21:30:01.926Z,0.00
2022-11-26T21:40:00.141Z,0.00
2022-11-26T21:50:01.661Z,0.00
2022-11-26T22:00:01.513Z,0.00
2022-11-26T22:10:01.059Z,0.00
2022-11-26T22:20:00.162Z,0.00
2022-11-26T22:30:01.300Z,0.00
2022-11-26T22:40:01.519Z,0.00
2022-11-26T22:50:03.435Z,0.00
2022-11-26T23:00:01.593Z,0.00
2022-11-26T23:10:01.258Z,0.00
2022-11-26T23:20:01.262Z,0.00
2022-11-26T23:30:01.794Z,0.00
2022-11-26T23:40:01.292Z,0.00
2022-11-26T23:50:01.338Z,0.00
